createdAt,value
2019-03-15T00:00:27.782Z,4.80
2019-03-15T00:02:56.830Z,4.80
2019-03-15T00:05:25.902Z,4.80
2019-03-15T00:07:54.703Z,4.80
2019-03-15T00:10:23.514Z,4.70
2019-03-15T00:12:52.595Z,4.60
2019-03-15T00:15:21.483Z,4.60
2019-03-15T00:17:50.595Z,4.60
2019-03-15T00:20:19.492Z,4.50
2019-03-15T00:22:48.638Z,4.50
2019-03-15T00:25:17.934Z,4.50
2019-03-15T00:27:46.828Z,4.40
2019-03-15T00:30:15.805Z,4.30
2019-03-15T00:32:44.947Z,4.30
2019-03-15T00:35:14.385Z,4.40
2019-03-15T00:37:43.976Z,4.40
2019-03-15T00:40:14.411Z,4.50
2019-03-15T00:42:43.385Z,4.50
2019-03-15T00:45:12.265Z,4.50
2019-03-15T00:47:41.070Z,4.50
2019-03-15T00:50:10.544Z,4.60
2019-03-15T00:52:39.425Z,4.60
2019-03-15T00:55:08.714Z,4.60
2019-03-15T00:57:37.783Z,4.60
2019-03-15T01:00:08.600Z,4.70
2019-03-15T01:02:37.427Z,4.60
2019-03-15T01:05:06.600Z,4.60
2019-03-15T01:07:36.203Z,4.60
2019-03-15T01:10:05.524Z,4.70
2019-03-15T01:12:34.598Z,4.70
2019-03-15T01:15:04.121Z,4.70
2019-03-15T01:17:33.456Z,4.70
2019-03-15T01:20:03.040Z,4.70
2019-03-15T01:22:32.170Z,4.60
2019-03-15T01:25:01.167Z,4.60
2019-03-15T01:27:30.296Z,4.60
2019-03-15T01:29:59.826Z,4.60
2019-03-15T01:32:28.586Z,4.70
2019-03-15T01:34:57.919Z,4.70
2019-03-15T01:37:27.194Z,4.80
2019-03-15T01:39:56.548Z,4.90
2019-03-15T01:42:25.847Z,4.90
2019-03-15T01:44:55.111Z,4.90
2019-03-15T01:47:24.561Z,5.00
2019-03-15T01:49:53.919Z,4.90
2019-03-15T01:52:22.929Z,5.00
2019-03-15T01:54:52.421Z,5.00
2019-03-15T01:57:21.427Z,5.00
2019-03-15T01:59:50.242Z,5.00
2019-03-15T02:02:19.339Z,5.00
2019-03-15T02:04:48.596Z,5.00
2019-03-15T02:07:17.746Z,5.10
2019-03-15T02:09:46.797Z,5.10
2019-03-15T02:12:15.806Z,5.10
2019-03-15T02:14:45.074Z,5.10
2019-03-15T02:17:14.006Z,5.10
2019-03-15T02:19:43.276Z,5.10
2019-03-15T02:22:12.765Z,5.10
2019-03-15T02:24:42.004Z,5.10
2019-03-15T02:27:10.754Z,5.10
2019-03-15T02:29:39.802Z,5.10
2019-03-15T02:32:08.847Z,5.10
2019-03-15T02:34:38.104Z,5.00
2019-03-15T02:37:07.272Z,5.00
2019-03-15T02:39:36.302Z,5.10
2019-03-15T02:42:05.299Z,5.10
2019-03-15T02:44:34.569Z,5.10
2019-03-15T02:47:03.323Z,5.00
2019-03-15T02:49:32.138Z,5.00
2019-03-15T02:52:01.487Z,5.00
2019-03-15T02:54:30.315Z,4.90
2019-03-15T02:56:59.149Z,4.90
2019-03-15T02:59:28.204Z,4.90
2019-03-15T03:01:57.510Z,4.80
2019-03-15T03:04:26.620Z,4.80
2019-03-15T03:06:55.517Z,4.70
2019-03-15T03:09:24.851Z,4.80
2019-03-15T03:11:53.933Z,4.70
2019-03-15T03:14:22.743Z,4.80
2019-03-15T03:16:51.555Z,4.80
2019-03-15T03:19:20.389Z,4.90
2019-03-15T03:21:49.501Z,5.00
2019-03-15T03:24:18.315Z,5.00
2019-03-15T03:26:47.677Z,5.00
2019-03-15T03:29:16.991Z,4.90
2019-03-15T03:31:46.251Z,5.00
2019-03-15T03:34:15.660Z,5.00
2019-03-15T03:36:44.732Z,5.00
2019-03-15T03:39:13.549Z,5.00
2019-03-15T03:41:42.604Z,5.00
2019-03-15T03:44:11.418Z,5.00
2019-03-15T03:46:40.230Z,5.00
2019-03-15T03:49:09.042Z,5.00
2019-03-15T03:51:38.091Z,5.00
2019-03-15T03:54:06.925Z,4.90
2019-03-15T03:56:36.051Z,4.90
2019-03-15T03:59:05.267Z,5.00
2019-03-15T04:01:34.676Z,5.10
2019-03-15T04:04:03.675Z,5.10
2019-03-15T04:06:33.143Z,5.10
2019-03-15T04:09:02.291Z,5.10
2019-03-15T04:11:31.343Z,5.10
2019-03-15T04:14:00.206Z,5.10
2019-03-15T04:16:29.003Z,5.20
2019-03-15T04:18:58.067Z,5.20
2019-03-15T04:21:26.879Z,5.30
2019-03-15T04:23:55.695Z,5.30
2019-03-15T04:26:25.092Z,5.20
2019-03-15T04:28:56.865Z,5.30
2019-03-15T04:31:24.682Z,5.30
2019-03-15T04:33:54.254Z,5.30
2019-03-15T04:36:23.320Z,5.40
2019-03-15T04:38:52.122Z,5.40
2019-03-15T04:41:21.060Z,5.40
2019-03-15T04:43:49.975Z,5.50
2019-03-15T04:46:18.775Z,5.50
2019-03-15T04:48:47.588Z,5.50
2019-03-15T04:51:16.891Z,5.50
2019-03-15T04:53:45.928Z,5.50
2019-03-15T04:56:14.982Z,5.50
2019-03-15T04:58:43.823Z,5.60
2019-03-15T05:01:13.194Z,5.60
2019-03-15T05:03:42.243Z,5.60
2019-03-15T05:06:11.298Z,5.70
2019-03-15T05:08:40.110Z,5.60
2019-03-15T05:11:09.540Z,5.70
2019-03-15T05:13:38.411Z,5.70
2019-03-15T05:16:07.573Z,5.70
2019-03-15T05:18:36.670Z,5.70
2019-03-15T05:21:05.805Z,5.70
2019-03-15T05:23:34.843Z,5.70
2019-03-15T05:26:03.676Z,5.60
2019-03-15T05:28:32.467Z,5.70
2019-03-15T05:31:01.292Z,5.70
2019-03-15T05:33:30.591Z,5.60
2019-03-15T05:35:59.427Z,5.60
2019-03-15T05:38:28.551Z,5.60
2019-03-15T05:40:57.623Z,5.60
2019-03-15T05:43:26.931Z,5.60
2019-03-15T05:45:55.832Z,5.60
2019-03-15T05:48:24.731Z,5.60
2019-03-15T05:50:53.574Z,5.60
2019-03-15T05:53:23.154Z,5.60
2019-03-15T05:55:52.322Z,5.60
2019-03-15T05:58:22.035Z,5.60
2019-03-15T06:00:51.265Z,5.60
2019-03-15T06:03:20.392Z,5.50
2019-03-15T06:05:49.231Z,5.50
2019-03-15T06:08:18.298Z,5.50
2019-03-15T06:10:47.625Z,5.50
2019-03-15T06:13:16.436Z,5.50
2019-03-15T06:15:45.252Z,5.50
2019-03-15T06:18:14.800Z,5.50
2019-03-15T06:20:43.852Z,5.50
2019-03-15T06:23:12.641Z,5.50
2019-03-15T06:25:41.492Z,5.40
2019-03-15T06:28:10.335Z,5.40
2019-03-15T06:30:39.391Z,5.50
2019-03-15T06:33:08.471Z,5.60
2019-03-15T06:35:37.555Z,5.70
2019-03-15T06:38:06.436Z,5.80
2019-03-15T06:40:35.525Z,6.10
2019-03-15T06:43:04.774Z,6.30
2019-03-15T06:45:34.068Z,6.50
2019-03-15T06:48:03.195Z,6.50
2019-03-15T06:50:32.004Z,6.40
2019-03-15T06:53:00.914Z,6.00
2019-03-15T06:55:30.137Z,5.80
2019-03-15T06:57:59.022Z,5.70
2019-03-15T07:00:28.075Z,5.60
2019-03-15T07:02:56.912Z,5.50
2019-03-15T07:05:26.517Z,5.50
2019-03-15T07:07:55.593Z,5.50
2019-03-15T07:10:24.656Z,5.50
2019-03-15T07:12:53.477Z,5.50
2019-03-15T07:15:22.535Z,5.50
2019-03-15T07:17:51.402Z,5.60
2019-03-15T07:20:20.823Z,5.60
2019-03-15T07:22:50.099Z,5.70
2019-03-15T07:25:19.059Z,5.70
2019-03-15T07:27:47.950Z,5.70
2019-03-15T07:30:16.909Z,5.80
2019-03-15T07:32:45.804Z,5.80
2019-03-15T07:35:14.795Z,6.00
2019-03-15T07:37:45.636Z,6.00
2019-03-15T07:40:14.278Z,6.00
2019-03-15T07:42:43.343Z,6.20
2019-03-15T07:45:12.670Z,6.20
2019-03-15T07:47:41.806Z,6.30
2019-03-15T07:50:13.925Z,6.30
2019-03-15T07:52:41.531Z,6.40
2019-03-15T07:55:10.735Z,6.40
2019-03-15T07:57:40.045Z,6.50
2019-03-15T08:00:09.311Z,6.50
2019-03-15T08:02:38.127Z,6.50
2019-03-15T08:05:07.963Z,6.60
2019-03-15T08:07:44.338Z,6.60
2019-03-15T08:10:08.166Z,6.80
2019-03-15T08:12:38.865Z,6.90
2019-03-15T08:15:08.332Z,7.00
2019-03-15T08:17:37.244Z,6.90
2019-03-15T08:20:06.652Z,7.00
2019-03-15T08:22:35.720Z,6.90
2019-03-15T08:25:04.959Z,6.90
2019-03-15T08:27:33.771Z,6.80
2019-03-15T08:30:02.812Z,6.90
2019-03-15T08:32:31.631Z,7.00
2019-03-15T08:35:03.656Z,7.00
2019-03-15T08:37:31.463Z,7.10
2019-03-15T08:40:00.767Z,7.20
2019-03-15T08:42:29.583Z,7.30
2019-03-15T08:44:58.725Z,7.50
2019-03-15T08:47:27.799Z,7.50
2019-03-15T08:49:56.888Z,7.60
2019-03-15T08:52:26.212Z,7.70
2019-03-15T08:55:04.995Z,7.70
2019-03-15T08:57:26.326Z,7.80
2019-03-15T08:59:57.651Z,7.80
2019-03-15T09:02:26.436Z,7.80
2019-03-15T09:04:55.502Z,7.90
2019-03-15T09:07:24.293Z,8.00
2019-03-15T09:09:53.415Z,8.10
2019-03-15T09:12:22.469Z,8.10
2019-03-15T09:14:51.616Z,8.10
2019-03-15T09:17:20.415Z,8.20
2019-03-15T09:19:49.480Z,8.20
2019-03-15T09:22:18.534Z,8.20
2019-03-15T09:24:47.351Z,8.20
2019-03-15T09:27:16.654Z,8.30
2019-03-15T09:29:45.736Z,8.50
2019-03-15T09:32:14.780Z,8.60
2019-03-15T09:34:43.884Z,8.70
2019-03-15T09:37:13.248Z,8.90
2019-03-15T09:39:42.591Z,8.90
2019-03-15T09:42:12.144Z,8.90
2019-03-15T09:44:41.215Z,8.80
2019-03-15T09:47:10.523Z,8.80
2019-03-15T09:49:39.590Z,8.70
2019-03-15T09:52:08.395Z,8.70
2019-03-15T09:54:37.707Z,8.70
2019-03-15T09:57:06.837Z,8.70
2019-03-15T09:59:36.227Z,8.70
2019-03-15T10:02:07.857Z,8.60
2019-03-15T10:04:36.319Z,8.60
2019-03-15T10:07:05.272Z,8.60
2019-03-15T10:09:45.136Z,8.60
2019-03-15T10:12:05.030Z,8.70
2019-03-15T10:14:33.892Z,8.70
2019-03-15T10:17:02.767Z,8.70
2019-03-15T10:19:31.694Z,8.80
2019-03-15T10:22:00.510Z,8.80
2019-03-15T10:24:29.402Z,8.90
2019-03-15T10:26:58.466Z,9.00
2019-03-15T10:29:27.288Z,9.00
2019-03-15T10:31:56.127Z,9.00
2019-03-15T10:34:25.016Z,9.00
2019-03-15T10:36:54.099Z,9.20
2019-03-15T10:39:23.187Z,9.30
2019-03-15T10:41:52.249Z,9.40
2019-03-15T10:44:21.071Z,9.60
2019-03-15T10:46:49.956Z,9.70
2019-03-15T10:49:19.288Z,9.70
2019-03-15T10:51:48.086Z,9.80
2019-03-15T10:54:16.920Z,9.80
2019-03-15T10:56:46.985Z,9.80
2019-03-15T10:59:16.041Z,9.80
2019-03-15T11:01:45.438Z,9.80
2019-03-15T11:04:14.743Z,9.80
2019-03-15T11:06:44.076Z,9.80
2019-03-15T11:09:12.899Z,9.90
2019-03-15T11:11:42.223Z,10.00
2019-03-15T11:14:11.552Z,10.00
2019-03-15T11:16:40.348Z,10.00
2019-03-15T11:19:09.648Z,10.00
2019-03-15T11:21:39.027Z,10.00
2019-03-15T11:24:08.067Z,10.00
2019-03-15T11:26:36.892Z,9.90
2019-03-15T11:29:05.696Z,9.90
2019-03-15T11:31:34.783Z,10.00
2019-03-15T11:34:03.899Z,9.90
2019-03-15T11:36:33.200Z,9.90
2019-03-15T11:39:02.019Z,10.00
2019-03-15T11:41:31.640Z,10.00
2019-03-15T11:44:00.722Z,10.00
2019-03-15T11:46:29.628Z,10.10
2019-03-15T11:48:58.430Z,10.10
2019-03-15T11:51:27.834Z,10.00
2019-03-15T11:53:57.223Z,9.90
2019-03-15T11:56:27.206Z,9.90
2019-03-15T11:58:56.566Z,10.00
2019-03-15T12:01:25.907Z,10.00
2019-03-15T12:03:54.702Z,10.00
2019-03-15T12:06:24.273Z,10.00
2019-03-15T12:08:53.311Z,10.00
2019-03-15T12:11:22.388Z,10.00
2019-03-15T12:13:51.207Z,10.00
2019-03-15T12:16:20.506Z,10.10
2019-03-15T12:18:49.839Z,10.30
2019-03-15T12:21:18.983Z,10.30
2019-03-15T12:23:48.083Z,10.40
2019-03-15T12:26:17.587Z,10.50
2019-03-15T12:28:46.726Z,10.80
2019-03-15T12:31:15.787Z,10.60
2019-03-15T12:33:44.959Z,10.60
2019-03-15T12:36:13.780Z,10.60
2019-03-15T12:38:42.890Z,10.60
2019-03-15T12:41:12.008Z,10.60
2019-03-15T12:43:41.317Z,10.60
2019-03-15T12:46:10.139Z,10.50
2019-03-15T12:48:38.953Z,10.40
2019-03-15T12:51:07.758Z,10.40
2019-03-15T12:53:37.031Z,10.30
2019-03-15T12:56:05.930Z,10.30
2019-03-15T12:58:35.055Z,10.20
2019-03-15T13:01:04.282Z,10.20
2019-03-15T13:03:33.342Z,10.10
2019-03-15T13:06:02.482Z,10.10
2019-03-15T13:08:31.285Z,10.20
2019-03-15T13:11:00.124Z,10.30
2019-03-15T13:13:28.969Z,10.40
2019-03-15T13:15:58.019Z,10.30
2019-03-15T13:18:27.114Z,10.40
2019-03-15T13:20:55.935Z,10.30
2019-03-15T13:23:24.739Z,10.40
2019-03-15T13:25:54.712Z,10.40
2019-03-15T13:28:23.945Z,10.40
2019-03-15T13:30:52.945Z,10.40
2019-03-15T13:33:22.237Z,10.40
2019-03-15T13:35:51.132Z,10.40
2019-03-15T13:38:20.258Z,10.40
2019-03-15T13:40:49.067Z,10.40
2019-03-15T13:43:17.876Z,10.40
2019-03-15T13:45:47.195Z,10.40
2019-03-15T13:48:16.256Z,10.40
2019-03-15T13:50:45.710Z,10.40
2019-03-15T13:53:14.519Z,10.40
2019-03-15T13:55:43.351Z,10.40
2019-03-15T13:58:12.531Z,10.40
2019-03-15T14:00:41.667Z,10.30
2019-03-15T14:03:10.698Z,10.30
2019-03-15T14:05:39.520Z,10.20
2019-03-15T14:08:11.982Z,10.20
2019-03-15T14:10:49.320Z,10.20
2019-03-15T14:13:12.011Z,10.20
2019-03-15T14:15:40.930Z,10.20
2019-03-15T14:18:09.738Z,10.20
2019-03-15T14:20:39.215Z,10.30
2019-03-15T14:23:08.497Z,10.30
2019-03-15T14:25:37.706Z,10.30
2019-03-15T14:28:06.764Z,10.30
2019-03-15T14:30:35.637Z,10.20
2019-03-15T14:33:04.831Z,10.20
2019-03-15T14:35:33.642Z,10.10
2019-03-15T14:38:02.704Z,10.10
2019-03-15T14:40:31.755Z,10.10
2019-03-15T14:43:00.653Z,10.20
2019-03-15T14:45:29.557Z,10.20
2019-03-15T14:47:58.426Z,10.20
2019-03-15T14:50:27.253Z,10.20
2019-03-15T14:52:56.637Z,10.20
2019-03-15T14:55:25.519Z,10.20
2019-03-15T14:57:54.833Z,10.20
2019-03-15T15:00:23.723Z,10.20
2019-03-15T15:02:52.600Z,10.30
2019-03-15T15:05:21.659Z,10.20
2019-03-15T15:07:50.946Z,10.30
2019-03-15T15:10:20.337Z,10.30
2019-03-15T15:12:49.252Z,10.20
2019-03-15T15:15:18.316Z,10.20
2019-03-15T15:17:47.131Z,10.20
2019-03-15T15:20:16.336Z,10.20
2019-03-15T15:22:45.227Z,10.10
2019-03-15T15:25:14.159Z,10.10
2019-03-15T15:27:43.247Z,10.10
2019-03-15T15:30:12.932Z,10.00
2019-03-15T15:32:41.747Z,10.00
2019-03-15T15:35:10.997Z,10.00
2019-03-15T15:37:39.946Z,9.90
2019-03-15T15:40:09.822Z,9.90
2019-03-15T15:42:38.791Z,9.90
2019-03-15T15:45:08.191Z,9.90
2019-03-15T15:47:37.101Z,10.00
2019-03-15T15:50:06.188Z,10.00
2019-03-15T15:52:35.248Z,10.00
2019-03-15T15:55:04.510Z,10.10
2019-03-15T15:57:33.569Z,10.20
2019-03-15T16:02:38.528Z,10.20
2019-03-15T16:05:08.806Z,10.20
2019-03-15T16:07:38.268Z,10.20
2019-03-15T16:10:08.743Z,10.20
2019-03-15T16:12:38.135Z,10.20
2019-03-15T16:15:07.648Z,10.30
2019-03-15T16:17:36.706Z,10.20
2019-03-15T16:20:05.743Z,10.20
2019-03-15T16:22:34.793Z,10.10
2019-03-15T16:25:03.668Z,10.10
2019-03-15T16:27:32.778Z,10.00
2019-03-15T16:30:01.801Z,10.00
2019-03-15T16:32:30.870Z,9.90
2019-03-15T16:35:00.621Z,9.90
2019-03-15T16:37:29.421Z,9.80
2019-03-15T16:39:59.229Z,9.80
2019-03-15T16:42:28.097Z,9.70
2019-03-15T16:44:57.472Z,9.70
2019-03-15T16:47:26.699Z,9.60
2019-03-15T16:49:55.782Z,9.60
2019-03-15T16:52:25.348Z,9.60
2019-03-15T16:54:54.145Z,9.60
2019-03-15T16:57:23.959Z,9.60
2019-03-15T16:59:53.338Z,9.50
2019-03-15T17:02:22.662Z,9.50
2019-03-15T17:04:51.986Z,9.50
2019-03-15T17:07:20.769Z,9.50
2019-03-15T17:09:49.820Z,9.50
2019-03-15T17:12:18.930Z,9.40
2019-03-15T17:14:48.550Z,9.40
2019-03-15T17:17:17.413Z,9.40
2019-03-15T17:19:47.073Z,9.50
2019-03-15T17:22:16.447Z,9.50
2019-03-15T17:24:45.853Z,9.50
2019-03-15T17:27:15.409Z,9.40
2019-03-15T17:29:44.933Z,9.40
2019-03-15T17:32:14.069Z,9.40
2019-03-15T17:34:43.413Z,9.40
2019-03-15T17:37:12.978Z,9.40
2019-03-15T17:39:43.994Z,9.30
2019-03-15T17:42:13.394Z,9.30
2019-03-15T17:44:43.095Z,9.40
2019-03-15T17:47:12.491Z,9.30
2019-03-15T17:49:41.532Z,9.30
2019-03-15T17:52:10.909Z,9.30
2019-03-15T17:54:39.954Z,9.30
2019-03-15T17:57:09.054Z,9.40
2019-03-15T17:59:38.593Z,9.40
2019-03-15T18:02:07.889Z,9.40
2019-03-15T18:04:36.703Z,9.40
2019-03-15T18:07:05.886Z,9.40
2019-03-15T18:09:34.683Z,9.40
2019-03-15T18:12:04.043Z,9.40
2019-03-15T18:14:33.607Z,9.40
2019-03-15T18:17:02.771Z,9.50
2019-03-15T18:19:31.699Z,9.50
2019-03-15T18:22:00.490Z,9.50
2019-03-15T18:24:29.323Z,9.40
2019-03-15T18:26:58.672Z,9.40
2019-03-15T18:29:27.470Z,9.30
2019-03-15T18:31:56.512Z,9.30
2019-03-15T18:34:25.482Z,9.30
2019-03-15T18:36:54.525Z,9.30
2019-03-15T18:39:23.326Z,9.30
2019-03-15T18:41:52.465Z,9.20
2019-03-15T18:44:21.526Z,9.20
2019-03-15T18:46:50.602Z,9.20
2019-03-15T18:49:19.411Z,9.20
2019-03-15T18:51:48.513Z,9.20
2019-03-15T18:54:18.121Z,9.30
2019-03-15T18:56:46.950Z,9.20
2019-03-15T18:59:16.109Z,9.20
2019-03-15T19:01:45.143Z,9.30
2019-03-15T19:04:14.420Z,9.30
2019-03-15T19:06:43.538Z,9.30
2019-03-15T19:09:12.578Z,9.30
2019-03-15T19:11:42.159Z,9.30
2019-03-15T19:14:11.513Z,9.40
2019-03-15T19:16:40.834Z,9.40
2019-03-15T19:19:10.166Z,9.40
2019-03-15T19:21:39.267Z,9.40
2019-03-15T19:24:08.546Z,9.40
2019-03-15T19:26:37.427Z,9.40
2019-03-15T19:29:06.715Z,9.50
2019-03-15T19:31:35.834Z,9.50
2019-03-15T19:34:05.506Z,9.50
2019-03-15T19:36:34.541Z,9.50
2019-03-15T19:39:03.995Z,9.50
2019-03-15T19:41:33.290Z,9.50
2019-03-15T19:44:02.565Z,9.40
2019-03-15T19:46:31.690Z,9.40
2019-03-15T19:49:00.725Z,9.40
2019-03-15T19:51:30.164Z,9.40
2019-03-15T19:53:59.215Z,9.30
2019-03-15T19:56:28.258Z,9.30
2019-03-15T19:58:57.807Z,9.30
2019-03-15T20:01:28.933Z,9.30
2019-03-15T20:03:58.029Z,9.30
2019-03-15T20:06:27.671Z,9.30
2019-03-15T20:08:56.778Z,9.20
2019-03-15T20:11:25.833Z,9.20
2019-03-15T20:13:54.937Z,9.10
2019-03-15T20:16:24.162Z,9.10
2019-03-15T20:18:53.487Z,9.10
2019-03-15T20:21:22.536Z,9.00
2019-03-15T20:23:51.574Z,9.00
2019-03-15T20:26:20.706Z,9.00
2019-03-15T20:28:49.759Z,9.00
2019-03-15T20:31:18.794Z,9.00
2019-03-15T20:33:48.073Z,9.00
2019-03-15T20:36:16.896Z,9.00
2019-03-15T20:38:46.170Z,9.00
2019-03-15T20:41:15.226Z,9.00
2019-03-15T20:43:44.570Z,9.00
2019-03-15T20:46:15.886Z,9.00
2019-03-15T20:48:44.666Z,9.00
2019-03-15T20:51:13.709Z,9.00
2019-03-15T20:53:42.796Z,9.00
2019-03-15T20:56:12.081Z,9.10
2019-03-15T20:58:41.034Z,9.10
2019-03-15T21:01:10.076Z,9.10
2019-03-15T21:03:38.865Z,9.10
2019-03-15T21:06:07.814Z,9.10
2019-03-15T21:08:36.850Z,9.00
2019-03-15T21:11:06.179Z,9.10
2019-03-15T21:13:35.721Z,9.00
2019-03-15T21:16:05.190Z,9.00
2019-03-15T21:18:34.498Z,9.00
2019-03-15T21:21:04.106Z,9.00
2019-03-15T21:23:33.702Z,9.00
2019-03-15T21:26:03.010Z,9.00
2019-03-15T21:28:32.380Z,9.00
2019-03-15T21:31:01.179Z,9.00
2019-03-15T21:33:30.520Z,9.00
2019-03-15T21:35:59.555Z,9.10
2019-03-15T21:38:28.853Z,9.10
2019-03-15T21:40:58.419Z,9.10
2019-03-15T21:43:27.516Z,9.00
2019-03-15T21:45:56.805Z,9.10
2019-03-15T21:48:26.138Z,9.10
2019-03-15T21:50:55.173Z,9.00
2019-03-15T21:53:24.226Z,9.00
2019-03-15T21:55:53.014Z,9.10
2019-03-15T21:58:22.538Z,9.10
2019-03-15T22:01:01.744Z,9.10
2019-03-15T22:03:22.663Z,9.10
2019-03-15T22:05:51.711Z,9.10
2019-03-15T22:08:21.003Z,9.10
2019-03-15T22:10:50.050Z,9.20
2019-03-15T22:13:18.849Z,9.20
2019-03-15T22:15:47.870Z,9.20
2019-03-15T22:18:16.910Z,9.20
2019-03-15T22:20:46.507Z,9.20
2019-03-15T22:23:15.333Z,9.20
2019-03-15T22:25:44.122Z,9.20
2019-03-15T22:28:12.939Z,9.20
2019-03-15T22:30:42.219Z,9.20
2019-03-15T22:33:11.007Z,9.20
2019-03-15T22:35:39.798Z,9.10
2019-03-15T22:38:08.909Z,9.10
2019-03-15T22:40:38.326Z,9.10
2019-03-15T22:43:07.233Z,9.00
2019-03-15T22:45:36.274Z,9.10
2019-03-15T22:48:05.074Z,9.10
2019-03-15T22:50:33.866Z,9.00
2019-03-15T22:53:02.918Z,9.00
2019-03-15T22:55:31.715Z,9.00
2019-03-15T22:58:00.764Z,9.00
2019-03-15T23:00:36.113Z,9.00
2019-03-15T23:03:05.637Z,9.00
2019-03-15T23:05:35.464Z,9.00
2019-03-15T23:08:04.509Z,9.00
2019-03-15T23:10:33.861Z,9.00
2019-03-15T23:13:02.907Z,9.00
2019-03-15T23:15:32.459Z,9.00
2019-03-15T23:18:01.570Z,9.00
2019-03-15T23:20:31.181Z,9.00
2019-03-15T23:22:59.968Z,9.00
2019-03-15T23:25:29.019Z,9.00
2019-03-15T23:27:58.106Z,9.00
2019-03-15T23:30:26.917Z,9.00
2019-03-15T23:32:56.039Z,9.00
2019-03-15T23:35:25.078Z,9.00
2019-03-15T23:37:53.871Z,9.00
2019-03-15T23:40:22.739Z,9.00
2019-03-15T23:42:52.013Z,9.00
2019-03-15T23:45:21.049Z,9.00
2019-03-15T23:47:50.646Z,8.90
2019-03-15T23:50:19.685Z,8.90
2019-03-15T23:52:49.043Z,8.90
2019-03-15T23:55:18.106Z,8.80
2019-03-15T23:57:47.170Z,8.80
